sensor_id;sensor_type;location;lat;lon;timestamp;pressure;altitude;pressure_sealevel;temperature;humidity
13414;BME280;6778;48.136;11.386;2023-03-04T00:02:38;95683.00;;;1.66;91.33
13414;BME280;6778;48.136;11.386;2023-03-04T00:05:09;95687.94;;;1.59;91.81
13414;BME280;6778;48.136;11.386;2023-03-04T00:07:39;95688.56;;;1.53;92.06
13414;BME280;6778;48.136;11.386;2023-03-04T00:10:10;95690.31;;;1.53;92.19
13414;BME280;6778;48.136;11.386;2023-03-04T00:12:41;95679.03;;;1.54;92.48
13414;BME280;6778;48.136;11.386;2023-03-04T00:15:11;95690.16;;;1.54;92.36
13414;BME280;6778;48.136;11.386;2023-03-04T00:17:43;95694.53;;;1.54;92.48
13414;BME280;6778;48.136;11.386;2023-03-04T00:20:13;95692.91;;;1.53;92.66
13414;BME280;6778;48.136;11.386;2023-03-04T00:22:43;95692.91;;;1.53;92.43
13414;BME280;6778;48.136;11.386;2023-03-04T00:25:14;95689.69;;;1.51;92.62
13414;BME280;6778;48.136;11.386;2023-03-04T00:27:44;95688.50;;;1.45;92.66
13414;BME280;6778;48.136;11.386;2023-03-04T00:30:14;95689.47;;;1.44;92.35
13414;BME280;6778;48.136;11.386;2023-03-04T00:32:47;95688.28;;;1.39;92.41
13414;BME280;6778;48.136;11.386;2023-03-04T00:35:17;95693.91;;;1.34;92.65
13414;BME280;6778;48.136;11.386;2023-03-04T00:37:47;95694.84;;;1.33;92.82
13414;BME280;6778;48.136;11.386;2023-03-04T00:40:17;95689.84;;;1.31;92.74
13414;BME280;6778;48.136;11.386;2023-03-04T00:42:48;95689.34;;;1.28;92.99
13414;BME280;6778;48.136;11.386;2023-03-04T00:45:17;95694.66;;;1.26;92.76
13414;BME280;6778;48.136;11.386;2023-03-04T00:47:50;95695.94;;;1.22;93.13
13414;BME280;6778;48.136;11.386;2023-03-04T00:50:20;95692.22;;;1.25;93.18
13414;BME280;6778;48.136;11.386;2023-03-04T00:52:51;95690.44;;;1.25;92.85
13414;BME280;6778;48.136;11.386;2023-03-04T00:55:20;95695.50;;;1.35;92.74
13414;BME280;6778;48.136;11.386;2023-03-04T00:57:50;95695.34;;;1.11;92.50
13414;BME280;6778;48.136;11.386;2023-03-04T01:00:21;95689.81;;;1.05;92.71
13414;BME280;6778;48.136;11.386;2023-03-04T01:02:56;95695.72;;;0.98;93.14
13414;BME280;6778;48.136;11.386;2023-03-04T01:05:26;95687.81;;;0.99;94.00
13414;BME280;6778;48.136;11.386;2023-03-04T01:08:00;95676.63;;;1.08;92.79
13414;BME280;6778;48.136;11.386;2023-03-04T01:10:33;95679.34;;;1.07;92.54
13414;BME280;6778;48.136;11.386;2023-03-04T01:13:04;95677.72;;;1.06;92.75
13414;BME280;6778;48.136;11.386;2023-03-04T01:15:37;95677.06;;;1.04;92.83
13414;BME280;6778;48.136;11.386;2023-03-04T01:18:18;95671.75;;;1.05;92.91
13414;BME280;6778;48.136;11.386;2023-03-04T01:20:48;95673.69;;;1.03;92.68
13414;BME280;6778;48.136;11.386;2023-03-04T01:23:21;95665.63;;;1.06;92.93
13414;BME280;6778;48.136;11.386;2023-03-04T01:25:53;95666.16;;;1.10;92.55
13414;BME280;6778;48.136;11.386;2023-03-04T01:28:26;95664.22;;;1.12;92.41
13414;BME280;6778;48.136;11.386;2023-03-04T01:30:55;95661.16;;;1.08;92.74
13414;BME280;6778;48.136;11.386;2023-03-04T01:33:30;95665.47;;;1.08;92.89
13414;BME280;6778;48.136;11.386;2023-03-04T01:36:03;95659.00;;;1.04;93.07
13414;BME280;6778;48.136;11.386;2023-03-04T01:38:33;95658.06;;;1.05;93.28
13414;BME280;6778;48.136;11.386;2023-03-04T01:41:03;95648.53;;;1.05;92.99
13414;BME280;6778;48.136;11.386;2023-03-04T01:43:35;95650.53;;;1.12;92.52
13414;BME280;6778;48.136;11.386;2023-03-04T01:46:06;95649.06;;;1.09;92.40
13414;BME280;6778;48.136;11.386;2023-03-04T01:48:39;95654.06;;;1.11;92.19
13414;BME280;6778;48.136;11.386;2023-03-04T01:51:12;95656.28;;;1.05;92.43
13414;BME280;6778;48.136;11.386;2023-03-04T01:53:46;95647.84;;;0.95;92.95
13414;BME280;6778;48.136;11.386;2023-03-04T01:56:25;95649.13;;;0.99;92.85
13414;BME280;6778;48.136;11.386;2023-03-04T01:59:10;95647.84;;;0.95;92.76
13414;BME280;6778;48.136;11.386;2023-03-04T02:01:42;95645.69;;;0.91;93.20
13414;BME280;6778;48.136;11.386;2023-03-04T02:04:21;95641.03;;;0.94;93.19
13414;BME280;6778;48.136;11.386;2023-03-04T02:06:53;95638.91;;;0.90;93.23
13414;BME280;6778;48.136;11.386;2023-03-04T02:09:32;95631.63;;;0.85;93.09
13414;BME280;6778;48.136;11.386;2023-03-04T02:12:06;95628.88;;;0.87;93.13
13414;BME280;6778;48.136;11.386;2023-03-04T02:14:42;95634.19;;;0.85;93.03
13414;BME280;6778;48.136;11.386;2023-03-04T02:17:14;95629.63;;;0.79;93.15
13414;BME280;6778;48.136;11.386;2023-03-04T02:19:55;95628.97;;;0.77;93.16
13414;BME280;6778;48.136;11.386;2023-03-04T02:22:33;95628.66;;;0.80;92.71
13414;BME280;6778;48.136;11.386;2023-03-04T02:25:12;95616.75;;;0.79;92.69
13414;BME280;6778;48.136;11.386;2023-03-04T02:27:47;95619.91;;;0.73;92.73
13414;BME280;6778;48.136;11.386;2023-03-04T02:30:20;95621.84;;;0.71;92.75
13414;BME280;6778;48.136;11.386;2023-03-04T02:32:53;95620.59;;;0.75;92.68
13414;BME280;6778;48.136;11.386;2023-03-04T02:35:24;95619.09;;;0.72;92.69
13414;BME280;6778;48.136;11.386;2023-03-04T02:37:54;95617.00;;;0.68;92.81
13414;BME280;6778;48.136;11.386;2023-03-04T02:40:29;95620.38;;;0.68;92.78
13414;BME280;6778;48.136;11.386;2023-03-04T02:43:03;95618.94;;;0.74;92.58
13414;BME280;6778;48.136;11.386;2023-03-04T02:45:40;95619.84;;;0.65;92.77
13414;BME280;6778;48.136;11.386;2023-03-04T02:48:14;95624.34;;;0.63;92.79
13414;BME280;6778;48.136;11.386;2023-03-04T02:50:48;95618.06;;;0.65;92.91
13414;BME280;6778;48.136;11.386;2023-03-04T02:53:20;95624.19;;;0.64;92.96
13414;BME280;6778;48.136;11.386;2023-03-04T02:55:54;95623.06;;;0.67;93.10
13414;BME280;6778;48.136;11.386;2023-03-04T02:58:32;95616.31;;;0.66;92.82
13414;BME280;6778;48.136;11.386;2023-03-04T03:01:05;95618.50;;;0.61;93.00
13414;BME280;6778;48.136;11.386;2023-03-04T03:03:35;95617.56;;;0.62;92.87
13414;BME280;6778;48.136;11.386;2023-03-04T03:06:06;95614.19;;;0.61;93.18
13414;BME280;6778;48.136;11.386;2023-03-04T03:08:39;95621.81;;;0.53;93.21
13414;BME280;6778;48.136;11.386;2023-03-04T03:11:09;95618.16;;;0.56;93.03
13414;BME280;6778;48.136;11.386;2023-03-04T03:13:42;95618.97;;;0.56;93.14
13414;BME280;6778;48.136;11.386;2023-03-04T03:16:13;95629.28;;;0.56;93.30
13414;BME280;6778;48.136;11.386;2023-03-04T03:18:45;95624.41;;;0.53;93.58
13414;BME280;6778;48.136;11.386;2023-03-04T03:21:15;95624.28;;;0.54;93.49
13414;BME280;6778;48.136;11.386;2023-03-04T03:23:47;95630.66;;;0.50;93.33
13414;BME280;6778;48.136;11.386;2023-03-04T03:26:24;95630.25;;;0.55;93.07
13414;BME280;6778;48.136;11.386;2023-03-04T03:28:59;95630.91;;;0.57;92.84
13414;BME280;6778;48.136;11.386;2023-03-04T03:31:30;95621.81;;;0.53;92.69
13414;BME280;6778;48.136;11.386;2023-03-04T03:34:01;95624.56;;;0.51;92.79
13414;BME280;6778;48.136;11.386;2023-03-04T03:36:34;95626.84;;;0.54;92.90
13414;BME280;6778;48.136;11.386;2023-03-04T03:39:05;95625.91;;;0.56;92.54
13414;BME280;6778;48.136;11.386;2023-03-04T03:41:37;95630.91;;;0.57;92.32
13414;BME280;6778;48.136;11.386;2023-03-04T03:44:12;95620.06;;;0.53;91.88
13414;BME280;6778;48.136;11.386;2023-03-04T03:46:43;95617.78;;;0.50;92.15
13414;BME280;6778;48.136;11.386;2023-03-04T03:49:15;95616.16;;;0.49;92.19
13414;BME280;6778;48.136;11.386;2023-03-04T03:51:47;95614.41;;;0.50;91.88
13414;BME280;6778;48.136;11.386;2023-03-04T03:54:18;95618.75;;;0.49;91.79
13414;BME280;6778;48.136;11.386;2023-03-04T03:56:48;95619.19;;;0.45;92.12
13414;BME280;6778;48.136;11.386;2023-03-04T03:59:21;95622.72;;;0.44;92.09
13414;BME280;6778;48.136;11.386;2023-03-04T04:01:51;95620.56;;;0.39;91.94
13414;BME280;6778;48.136;11.386;2023-03-04T04:04:21;95614.44;;;0.40;91.44
13414;BME280;6778;48.136;11.386;2023-03-04T04:06:51;95618.69;;;0.41;91.02
13414;BME280;6778;48.136;11.386;2023-03-04T04:09:21;95612.84;;;0.39;90.90
13414;BME280;6778;48.136;11.386;2023-03-04T04:11:51;95613.16;;;0.36;90.76
13414;BME280;6778;48.136;11.386;2023-03-04T04:14:24;95616.69;;;0.35;90.57
13414;BME280;6778;48.136;11.386;2023-03-04T04:16:54;95619.84;;;0.29;90.77
13414;BME280;6778;48.136;11.386;2023-03-04T04:19:24;95613.81;;;0.20;91.05
13414;BME280;6778;48.136;11.386;2023-03-04T04:21:54;95620.69;;;0.20;90.97
13414;BME280;6778;48.136;11.386;2023-03-04T04:24:26;95619.13;;;0.09;91.54
13414;BME280;6778;48.136;11.386;2023-03-04T04:26:56;95619.13;;;0.09;91.66
13414;BME280;6778;48.136;11.386;2023-03-04T04:29:31;95615.31;;;0.13;91.53
13414;BME280;6778;48.136;11.386;2023-03-04T04:32:01;95621.66;;;0.19;91.13
13414;BME280;6778;48.136;11.386;2023-03-04T04:34:32;95624.22;;;0.19;91.11
13414;BME280;6778;48.136;11.386;2023-03-04T04:37:03;95612.72;;;0.13;91.35
13414;BME280;6778;48.136;11.386;2023-03-04T04:39:33;95626.06;;;0.09;91.61
13414;BME280;6778;48.136;11.386;2023-03-04T04:42:07;95622.00;;;0.06;91.79
13414;BME280;6778;48.136;11.386;2023-03-04T04:44:45;95620.81;;;0.01;92.13
13414;BME280;6778;48.136;11.386;2023-03-04T04:47:15;95617.44;;;0.00;92.15
13414;BME280;6778;48.136;11.386;2023-03-04T04:49:45;95622.72;;;-0.02;92.23
13414;BME280;6778;48.136;11.386;2023-03-04T04:52:14;95618.91;;;0.03;92.10
13414;BME280;6778;48.136;11.386;2023-03-04T04:54:45;95619.19;;;-0.01;92.17
13414;BME280;6778;48.136;11.386;2023-03-04T04:57:15;95621.09;;;-0.03;92.24
13414;BME280;6778;48.136;11.386;2023-03-04T04:59:48;95621.50;;;-0.07;92.35
13414;BME280;6778;48.136;11.386;2023-03-04T05:02:18;95613.69;;;-0.06;92.16
13414;BME280;6778;48.136;11.386;2023-03-04T05:04:49;95622.72;;;-0.02;92.17
13414;BME280;6778;48.136;11.386;2023-03-04T05:07:21;95616.75;;;-0.02;92.38
13414;BME280;6778;48.136;11.386;2023-03-04T05:09:51;95618.91;;;0.03;92.23
13414;BME280;6778;48.136;11.386;2023-03-04T05:12:22;95616.34;;;0.03;91.97
13414;BME280;6778;48.136;11.386;2023-03-04T05:14:55;95625.59;;;-0.05;92.41
13414;BME280;6778;48.136;11.386;2023-03-04T05:17:24;95618.28;;;-0.09;92.72
13414;BME280;6778;48.136;11.386;2023-03-04T05:19:55;95624.38;;;-0.10;92.84
13414;BME280;6778;48.136;11.386;2023-03-04T05:22:28;95618.59;;;-0.12;93.03
13414;BME280;6778;48.136;11.386;2023-03-04T05:24:58;95624.81;;;-0.15;93.08
13414;BME280;6778;48.136;11.386;2023-03-04T05:27:29;95622.22;;;-0.15;93.03
13414;BME280;6778;48.136;11.386;2023-03-04T05:30:02;95623.59;;;-0.11;93.25
13414;BME280;6778;48.136;11.386;2023-03-04T05:32:32;95625.84;;;-0.08;93.33
13414;BME280;6778;48.136;11.386;2023-03-04T05:35:03;95628.34;;;-0.16;93.54
13414;BME280;6778;48.136;11.386;2023-03-04T05:37:36;95632.53;;;-0.15;93.83
13414;BME280;6778;48.136;11.386;2023-03-04T05:40:08;95625.50;;;-0.13;93.87
13414;BME280;6778;48.136;11.386;2023-03-04T05:42:38;95621.66;;;-0.09;93.40
13414;BME280;6778;48.136;11.386;2023-03-04T05:45:13;95620.63;;;-0.16;93.89
13414;BME280;6778;48.136;11.386;2023-03-04T05:47:43;95623.72;;;-0.12;93.92
13414;BME280;6778;48.136;11.386;2023-03-04T05:50:14;95624.38;;;-0.10;93.62
13414;BME280;6778;48.136;11.386;2023-03-04T05:52:45;95627.78;;;-0.10;93.71
13414;BME280;6778;48.136;11.386;2023-03-04T05:55:17;95635.09;;;-0.15;93.82
13414;BME280;6778;48.136;11.386;2023-03-04T05:57:51;95634.03;;;-0.12;93.96
13414;BME280;6778;48.136;11.386;2023-03-04T06:00:26;95637.66;;;-0.05;93.81
13414;BME280;6778;48.136;11.386;2023-03-04T06:02:56;95641.31;;;-0.08;93.68
13414;BME280;6778;48.136;11.386;2023-03-04T06:05:28;95640.06;;;-0.04;93.43
13414;BME280;6778;48.136;11.386;2023-03-04T06:08:00;95639.19;;;0.06;93.34
13414;BME280;6778;48.136;11.386;2023-03-04T06:10:31;95637.97;;;0.10;93.07
13414;BME280;6778;48.136;11.386;2023-03-04T06:13:00;95642.16;;;0.11;92.65
13414;BME280;6778;48.136;11.386;2023-03-04T06:15:34;95640.22;;;0.22;92.26
13414;BME280;6778;48.136;11.386;2023-03-04T06:18:05;95650.44;;;0.32;91.76
13414;BME280;6778;48.136;11.386;2023-03-04T06:20:35;95646.28;;;0.49;90.94
13414;BME280;6778;48.136;11.386;2023-03-04T06:23:05;95647.53;;;0.63;90.27
13414;BME280;6778;48.136;11.386;2023-03-04T06:25:36;95654.16;;;0.83;89.43
13414;BME280;6778;48.136;11.386;2023-03-04T06:28:06;95651.28;;;1.04;88.18
13414;BME280;6778;48.136;11.386;2023-03-04T06:30:38;95653.81;;;1.22;87.57
13414;BME280;6778;48.136;11.386;2023-03-04T06:33:08;95662.91;;;1.52;86.52
13414;BME280;6778;48.136;11.386;2023-03-04T06:35:38;95658.72;;;1.85;84.50
13414;BME280;6778;48.136;11.386;2023-03-04T06:38:10;95655.91;;;2.04;83.52
13414;BME280;6778;48.136;11.386;2023-03-04T06:40:42;95656.75;;;2.13;83.14
13414;BME280;6778;48.136;11.386;2023-03-04T06:43:14;95653.22;;;2.22;82.70
13414;BME280;6778;48.136;11.386;2023-03-04T06:45:48;95656.88;;;2.54;81.43
13414;BME280;6778;48.136;11.386;2023-03-04T06:48:20;95659.19;;;2.89;79.72
13414;BME280;6778;48.136;11.386;2023-03-04T06:50:51;95664.22;;;3.07;78.32
13414;BME280;6778;48.136;11.386;2023-03-04T06:53:25;95663.22;;;3.57;76.47
13414;BME280;6778;48.136;11.386;2023-03-04T06:55:58;95666.38;;;4.00;74.53
13414;BME280;6778;48.136;11.386;2023-03-04T06:58:36;95666.28;;;4.24;73.41
13414;BME280;6778;48.136;11.386;2023-03-04T07:01:15;95666.44;;;4.62;71.54
13414;BME280;6778;48.136;11.386;2023-03-04T07:03:52;95660.31;;;5.01;70.09
13414;BME280;6778;48.136;11.386;2023-03-04T07:06:28;95668.53;;;5.35;68.50
13414;BME280;6778;48.136;11.386;2023-03-04T07:08:58;95665.25;;;5.56;67.89
13414;BME280;6778;48.136;11.386;2023-03-04T07:11:28;95667.41;;;5.82;67.15
13414;BME280;6778;48.136;11.386;2023-03-04T07:13:59;95669.78;;;6.07;66.05
13414;BME280;6778;48.136;11.386;2023-03-04T07:16:32;95667.72;;;6.32;64.76
13414;BME280;6778;48.136;11.386;2023-03-04T07:19:02;95663.41;;;6.39;64.79
13414;BME280;6778;48.136;11.386;2023-03-04T07:21:33;95665.09;;;6.46;64.21
13414;BME280;6778;48.136;11.386;2023-03-04T07:24:09;95666.78;;;6.54;63.75
13414;BME280;6778;48.136;11.386;2023-03-04T07:26:41;95675.88;;;6.58;64.41
13414;BME280;6778;48.136;11.386;2023-03-04T07:29:11;95665.16;;;6.89;65.05
13414;BME280;6778;48.136;11.386;2023-03-04T07:31:45;95670.09;;;6.99;64.05
13414;BME280;6778;48.136;11.386;2023-03-04T07:34:18;95676.78;;;7.08;63.77
13414;BME280;6778;48.136;11.386;2023-03-04T07:36:48;95685.97;;;7.47;62.88
13414;BME280;6778;48.136;11.386;2023-03-04T07:39:18;95690.41;;;7.74;61.47
13414;BME280;6778;48.136;11.386;2023-03-04T07:41:49;95688.78;;;7.73;61.07
13414;BME280;6778;48.136;11.386;2023-03-04T07:44:20;95692.50;;;7.64;61.60
13414;BME280;6778;48.136;11.386;2023-03-04T07:46:54;95692.81;;;7.76;61.79
13414;BME280;6778;48.136;11.386;2023-03-04T07:49:24;95707.69;;;7.82;61.86
13414;BME280;6778;48.136;11.386;2023-03-04T07:51:54;95713.91;;;7.81;61.65
13414;BME280;6778;48.136;11.386;2023-03-04T07:54:24;95717.56;;;7.86;61.21
13414;BME280;6778;48.136;11.386;2023-03-04T07:56:55;95716.44;;;7.96;60.73
13414;BME280;6778;48.136;11.386;2023-03-04T07:59:25;95708.94;;;8.48;58.78
13414;BME280;6778;48.136;11.386;2023-03-04T08:01:58;95715.31;;;8.81;58.10
13414;BME280;6778;48.136;11.386;2023-03-04T08:04:28;95713.63;;;9.21;56.82
13414;BME280;6778;48.136;11.386;2023-03-04T08:06:58;95714.09;;;9.64;55.50
13414;BME280;6778;48.136;11.386;2023-03-04T08:09:29;95713.69;;;10.00;53.59
13414;BME280;6778;48.136;11.386;2023-03-04T08:12:00;95716.72;;;10.04;53.88
13414;BME280;6778;48.136;11.386;2023-03-04T08:14:30;95710.81;;;10.22;54.35
13414;BME280;6778;48.136;11.386;2023-03-04T08:17:03;95708.47;;;11.23;51.39
13414;BME280;6778;48.136;11.386;2023-03-04T08:19:33;95712.00;;;11.73;50.60
13414;BME280;6778;48.136;11.386;2023-03-04T08:22:03;95710.63;;;13.96;45.43
13414;BME280;6778;48.136;11.386;2023-03-04T08:24:33;95713.94;;;14.15;43.43
13414;BME280;6778;48.136;11.386;2023-03-04T08:27:03;95705.28;;;13.61;44.54
13414;BME280;6778;48.136;11.386;2023-03-04T08:29:33;95705.44;;;12.88;45.83
13414;BME280;6778;48.136;11.386;2023-03-04T08:32:06;95712.28;;;11.90;47.38
13414;BME280;6778;48.136;11.386;2023-03-04T08:34:38;95706.44;;;12.87;45.85
13414;BME280;6778;48.136;11.386;2023-03-04T08:37:10;95710.59;;;14.78;41.92
13414;BME280;6778;48.136;11.386;2023-03-04T08:39:40;95706.03;;;14.73;41.40
13414;BME280;6778;48.136;11.386;2023-03-04T08:42:10;95716.44;;;14.80;41.32
13414;BME280;6778;48.136;11.386;2023-03-04T08:44:40;95722.22;;;13.05;43.82
13414;BME280;6778;48.136;11.386;2023-03-04T08:47:12;95712.09;;;13.38;43.73
13414;BME280;6778;48.136;11.386;2023-03-04T08:49:43;95724.13;;;12.79;44.58
13414;BME280;6778;48.136;11.386;2023-03-04T08:52:13;95709.91;;;13.17;44.00
13414;BME280;6778;48.136;11.386;2023-03-04T08:54:43;95710.41;;;14.44;42.47
13414;BME280;6778;48.136;11.386;2023-03-04T08:57:13;95705.94;;;14.57;41.83
13414;BME280;6778;48.136;11.386;2023-03-04T08:59:43;95710.63;;;14.43;42.02
13414;BME280;6778;48.136;11.386;2023-03-04T09:02:18;95711.72;;;14.94;39.96
13414;BME280;6778;48.136;11.386;2023-03-04T09:04:48;95709.13;;;14.35;41.22
13414;BME280;6778;48.136;11.386;2023-03-04T09:07:19;95712.34;;;14.72;41.10
13414;BME280;6778;48.136;11.386;2023-03-04T09:09:49;95716.75;;;15.24;39.62
13414;BME280;6778;48.136;11.386;2023-03-04T09:12:23;95709.03;;;15.63;38.99
13414;BME280;6778;48.136;11.386;2023-03-04T09:14:54;95707.25;;;16.14;37.91
13414;BME280;6778;48.136;11.386;2023-03-04T09:17:40;95706.19;;;16.92;36.26
13414;BME280;6778;48.136;11.386;2023-03-04T09:20:12;95704.16;;;16.99;36.04
13414;BME280;6778;48.136;11.386;2023-03-04T09:22:42;95704.72;;;17.23;35.75
13414;BME280;6778;48.136;11.386;2023-03-04T09:25:15;95700.19;;;16.97;35.79
13414;BME280;6778;48.136;11.386;2023-03-04T09:27:45;95692.69;;;17.37;34.98
13414;BME280;6778;48.136;11.386;2023-03-04T09:30:16;95698.50;;;17.93;34.15
13414;BME280;6778;48.136;11.386;2023-03-04T09:32:49;95699.56;;;18.24;33.73
13414;BME280;6778;48.136;11.386;2023-03-04T09:35:21;95697.94;;;18.23;33.59
13414;BME280;6778;48.136;11.386;2023-03-04T09:37:51;95704.19;;;18.92;32.94
13414;BME280;6778;48.136;11.386;2023-03-04T09:40:25;95697.63;;;19.04;32.72
13414;BME280;6778;48.136;11.386;2023-03-04T09:43:02;95699.13;;;20.19;30.78
13414;BME280;6778;48.136;11.386;2023-03-04T09:45:42;95700.44;;;20.52;30.17
13414;BME280;6778;48.136;11.386;2023-03-04T09:48:21;95704.69;;;20.38;29.83
13414;BME280;6778;48.136;11.386;2023-03-04T09:51:07;95702.06;;;20.07;30.47
13414;BME280;6778;48.136;11.386;2023-03-04T09:53:55;95710.50;;;20.70;30.00
13414;BME280;6778;48.136;11.386;2023-03-04T09:56:32;95700.91;;;20.80;29.61
13414;BME280;6778;48.136;11.386;2023-03-04T09:59:11;95701.50;;;20.66;29.95
13414;BME280;6778;48.136;11.386;2023-03-04T10:01:48;95697.41;;;20.94;29.80
13414;BME280;6778;48.136;11.386;2023-03-04T10:04:30;95694.25;;;20.72;29.33
13414;BME280;6778;48.136;11.386;2023-03-04T10:07:07;95703.09;;;20.42;30.05
13414;BME280;6778;48.136;11.386;2023-03-04T10:09:46;95688.31;;;21.01;29.29
13414;BME280;6778;48.136;11.386;2023-03-04T10:12:22;95685.81;;;20.50;29.62
13414;BME280;6778;48.136;11.386;2023-03-04T10:14:59;95693.81;;;21.19;28.77
13414;BME280;6778;48.136;11.386;2023-03-04T10:17:36;95682.31;;;21.73;28.19
13414;BME280;6778;48.136;11.386;2023-03-04T10:20:14;95677.88;;;21.09;28.38
13414;BME280;6778;48.136;11.386;2023-03-04T10:22:50;95682.91;;;20.46;28.43
13414;BME280;6778;48.136;11.386;2023-03-04T10:25:22;95677.41;;;20.97;27.91
13414;BME280;6778;48.136;11.386;2023-03-04T10:27:57;95676.16;;;20.69;28.09
13414;BME280;6778;48.136;11.386;2023-03-04T10:30:43;95665.59;;;20.28;28.93
13414;BME280;6778;48.136;11.386;2023-03-04T10:33:19;95669.75;;;20.75;28.29
13414;BME280;6778;48.136;11.386;2023-03-04T10:36:00;95663.81;;;20.98;28.32
13414;BME280;6778;48.136;11.386;2023-03-04T10:38:33;95658.59;;;21.33;28.55
13414;BME280;6778;48.136;11.386;2023-03-04T10:41:11;95664.38;;;20.90;28.32
13414;BME280;6778;48.136;11.386;2023-03-04T10:43:43;95662.66;;;20.50;29.09
13414;BME280;6778;48.136;11.386;2023-03-04T10:46:22;95655.19;;;20.37;29.23
13414;BME280;6778;48.136;11.386;2023-03-04T10:48:53;95652.06;;;19.58;29.36
13414;BME280;6778;48.136;11.386;2023-03-04T10:51:28;95654.94;;;20.18;29.71
13414;BME280;6778;48.136;11.386;2023-03-04T10:54:07;95652.59;;;19.60;29.80
13414;BME280;6778;48.136;11.386;2023-03-04T10:56:41;95649.94;;;19.86;30.27
13414;BME280;6778;48.136;11.386;2023-03-04T10:59:37;95645.97;;;19.58;29.78
13414;BME280;6778;48.136;11.386;2023-03-04T11:02:20;95644.59;;;19.71;30.25
13414;BME280;6778;48.136;11.386;2023-03-04T11:04:55;95645.22;;;18.85;30.45
13414;BME280;6778;48.136;11.386;2023-03-04T11:07:27;95649.03;;;19.14;30.48
13414;BME280;6778;48.136;11.386;2023-03-04T11:10:17;95647.88;;;18.32;31.48
13414;BME280;6778;48.136;11.386;2023-03-04T11:12:49;95639.00;;;18.11;31.96
13414;BME280;6778;48.136;11.386;2023-03-04T11:15:23;95636.69;;;17.83;32.95
13414;BME280;6778;48.136;11.386;2023-03-04T11:18:03;95639.19;;;17.35;33.34
13414;BME280;6778;48.136;11.386;2023-03-04T11:20:40;95642.97;;;16.52;34.68
13414;BME280;6778;48.136;11.386;2023-03-04T11:23:22;95644.63;;;16.58;35.36
13414;BME280;6778;48.136;11.386;2023-03-04T11:26:01;95649.66;;;15.99;36.55
13414;BME280;6778;48.136;11.386;2023-03-04T11:28:43;95648.13;;;15.07;37.25
13414;BME280;6778;48.136;11.386;2023-03-04T11:31:21;95643.19;;;15.11;38.02
13414;BME280;6778;48.136;11.386;2023-03-04T11:33:58;95638.69;;;14.83;39.34
13414;BME280;6778;48.136;11.386;2023-03-04T11:36:39;95636.63;;;14.21;39.52
13414;BME280;6778;48.136;11.386;2023-03-04T11:39:25;95638.28;;;14.62;40.67
13414;BME280;6778;48.136;11.386;2023-03-04T11:42:04;95635.50;;;14.05;39.69
13414;BME280;6778;48.136;11.386;2023-03-04T11:44:37;95637.88;;;14.07;40.18
13414;BME280;6778;48.136;11.386;2023-03-04T11:47:27;95633.97;;;13.74;41.10
13414;BME280;6778;48.136;11.386;2023-03-04T11:50:17;95631.56;;;13.61;41.50
13414;BME280;6778;48.136;11.386;2023-03-04T11:53:09;95634.44;;;13.18;41.25
13414;BME280;6778;48.136;11.386;2023-03-04T11:55:59;95630.81;;;13.00;41.14
13414;BME280;6778;48.136;11.386;2023-03-04T12:01:47;95624.06;;;12.63;41.64
13414;BME280;6778;48.136;11.386;2023-03-04T12:04:48;95618.97;;;12.79;41.98
13414;BME280;6778;48.136;11.386;2023-03-04T12:07:42;95611.22;;;12.54;42.98
13414;BME280;6778;48.136;11.386;2023-03-04T12:10:23;95614.59;;;12.43;43.04
13414;BME280;6778;48.136;11.386;2023-03-04T12:13:28;95616.63;;;12.23;43.32
13414;BME280;6778;48.136;11.386;2023-03-04T12:16:16;95607.94;;;11.61;43.84
13414;BME280;6778;48.136;11.386;2023-03-04T12:19:03;95607.72;;;11.87;44.73
13414;BME280;6778;48.136;11.386;2023-03-04T12:21:55;95599.78;;;11.44;44.81
13414;BME280;6778;48.136;11.386;2023-03-04T12:25:00;95596.91;;;11.52;45.80
13414;BME280;6778;48.136;11.386;2023-03-04T12:27:39;95586.94;;;11.61;45.88
13414;BME280;6778;48.136;11.386;2023-03-04T12:30:32;95595.88;;;11.28;46.16
13414;BME280;6778;48.136;11.386;2023-03-04T12:33:15;95584.75;;;11.08;46.44
13414;BME280;6778;48.136;11.386;2023-03-04T12:35:57;95579.00;;;10.92;46.87
13414;BME280;6778;48.136;11.386;2023-03-04T12:38:58;95577.63;;;10.83;47.64
13414;BME280;6778;48.136;11.386;2023-03-04T12:41:38;95565.84;;;10.68;47.58
13414;BME280;6778;48.136;11.386;2023-03-04T12:44:15;95566.97;;;10.47;48.30
13414;BME280;6778;48.136;11.386;2023-03-04T12:47:08;95552.53;;;10.37;49.18
13414;BME280;6778;48.136;11.386;2023-03-04T12:49:59;95558.59;;;10.63;51.09
13414;BME280;6778;48.136;11.386;2023-03-04T12:52:40;95560.66;;;10.61;51.58
13414;BME280;6778;48.136;11.386;2023-03-04T12:55:18;95564.88;;;10.24;50.86
13414;BME280;6778;48.136;11.386;2023-03-04T12:57:55;95548.94;;;10.25;51.62
13414;BME280;6778;48.136;11.386;2023-03-04T13:00:42;95550.56;;;10.13;52.66
13414;BME280;6778;48.136;11.386;2023-03-04T13:03:28;95557.31;;;9.89;52.88
13414;BME280;6778;48.136;11.386;2023-03-04T13:06:16;95551.09;;;9.77;52.75
13414;BME280;6778;48.136;11.386;2023-03-04T13:08:58;95551.13;;;9.64;53.93
13414;BME280;6778;48.136;11.386;2023-03-04T13:11:41;95546.50;;;9.59;53.91
13414;BME280;6778;48.136;11.386;2023-03-04T13:14:29;95542.47;;;9.70;53.92
13414;BME280;6778;48.136;11.386;2023-03-04T13:17:33;95540.47;;;9.65;54.10
13414;BME280;6778;48.136;11.386;2023-03-04T13:20:22;95547.09;;;9.61;54.59
13414;BME280;6778;48.136;11.386;2023-03-04T13:22:56;95546.50;;;9.59;54.55
13414;BME280;6778;48.136;11.386;2023-03-04T13:25:42;95541.72;;;9.36;55.13
13414;BME280;6778;48.136;11.386;2023-03-04T13:28:23;95539.91;;;9.43;55.27
13414;BME280;6778;48.136;11.386;2023-03-04T13:31:21;95534.50;;;9.25;55.33
13414;BME280;6778;48.136;11.386;2023-03-04T13:34:39;95537.31;;;9.23;55.54
13414;BME280;6778;48.136;11.386;2023-03-04T13:37:00;95536.72;;;9.21;55.71
13414;BME280;6778;48.136;11.386;2023-03-04T13:39:34;95524.03;;;9.05;55.97
13414;BME280;6778;48.136;11.386;2023-03-04T13:45:32;95524.13;;;11.23;53.97
13414;BME280;6778;48.136;11.386;2023-03-04T13:48:22;95524.63;;;11.56;50.05
13414;BME280;6778;48.136;11.386;2023-03-04T13:50:57;95528.34;;;9.84;53.31
13414;BME280;6778;48.136;11.386;2023-03-04T13:53:43;95527.03;;;9.42;55.27
13414;BME280;6778;48.136;11.386;2023-03-04T13:56:25;95520.59;;;9.38;55.17